sensor_id;sensor_type;location;lat;lon;timestamp;temperature;humidity
30304;DHT22;17112;48.636;10.152;2024-03-22T00:01:11;8.90;61.40
30304;DHT22;17112;48.636;10.152;2024-03-22T00:03:37;8.90;61.30
30304;DHT22;17112;48.636;10.152;2024-03-22T00:06:02;8.90;61.30
30304;DHT22;17112;48.636;10.152;2024-03-22T00:08:28;8.90;61.40
30304;DHT22;17112;48.636;10.152;2024-03-22T00:10:54;8.90;61.40
30304;DHT22;17112;48.636;10.152;2024-03-22T00:13:19;8.90;61.40
30304;DHT22;17112;48.636;10.152;2024-03-22T00:15:45;8.80;61.40
30304;DHT22;17112;48.636;10.152;2024-03-22T00:18:11;8.90;61.40
30304;DHT22;17112;48.636;10.152;2024-03-22T00:20:37;8.80;61.40
30304;DHT22;17112;48.636;10.152;2024-03-22T00:23:02;8.80;61.50
30304;DHT22;17112;48.636;10.152;2024-03-22T00:25:28;8.80;61.70
30304;DHT22;17112;48.636;10.152;2024-03-22T00:27:55;8.70;61.80
30304;DHT22;17112;48.636;10.152;2024-03-22T00:30:20;8.70;61.90
30304;DHT22;17112;48.636;10.152;2024-03-22T00:32:46;8.70;61.80
30304;DHT22;17112;48.636;10.152;2024-03-22T00:35:12;8.60;61.60
30304;DHT22;17112;48.636;10.152;2024-03-22T00:37:38;8.60;61.80
30304;DHT22;17112;48.636;10.152;2024-03-22T00:40:05;8.60;61.90
30304;DHT22;17112;48.636;10.152;2024-03-22T00:42:30;8.60;62.10
30304;DHT22;17112;48.636;10.152;2024-03-22T00:44:56;8.50;61.90
30304;DHT22;17112;48.636;10.152;2024-03-22T00:47:23;8.50;61.90
30304;DHT22;17112;48.636;10.152;2024-03-22T00:49:49;8.50;61.70
30304;DHT22;17112;48.636;10.152;2024-03-22T00:52:15;8.40;61.70
30304;DHT22;17112;48.636;10.152;2024-03-22T00:54:40;8.40;62.00
30304;DHT22;17112;48.636;10.152;2024-03-22T00:57:06;8.40;62.20
30304;DHT22;17112;48.636;10.152;2024-03-22T00:59:32;8.40;62.30
30304;DHT22;17112;48.636;10.152;2024-03-22T01:01:58;8.30;62.30
30304;DHT22;17112;48.636;10.152;2024-03-22T01:04:23;8.30;62.30
30304;DHT22;17112;48.636;10.152;2024-03-22T01:06:49;8.30;62.30
30304;DHT22;17112;48.636;10.152;2024-03-22T01:09:15;8.20;62.40
30304;DHT22;17112;48.636;10.152;2024-03-22T01:11:41;8.20;62.70
30304;DHT22;17112;48.636;10.152;2024-03-22T01:14:06;8.20;62.70
30304;DHT22;17112;48.636;10.152;2024-03-22T01:16:32;8.20;62.80
30304;DHT22;17112;48.636;10.152;2024-03-22T01:18:58;8.20;63.00
30304;DHT22;17112;48.636;10.152;2024-03-22T01:21:23;8.10;62.90
30304;DHT22;17112;48.636;10.152;2024-03-22T01:23:53;8.10;62.90
30304;DHT22;17112;48.636;10.152;2024-03-22T01:26:19;8.10;63.00
30304;DHT22;17112;48.636;10.152;2024-03-22T01:28:45;8.10;63.00
30304;DHT22;17112;48.636;10.152;2024-03-22T01:31:11;8.00;63.10
30304;DHT22;17112;48.636;10.152;2024-03-22T01:33:37;8.00;63.10
30304;DHT22;17112;48.636;10.152;2024-03-22T01:36:03;8.00;63.10
30304;DHT22;17112;48.636;10.152;2024-03-22T01:38:31;7.90;63.10
30304;DHT22;17112;48.636;10.152;2024-03-22T01:40:56;7.90;63.20
30304;DHT22;17112;48.636;10.152;2024-03-22T01:43:22;7.90;63.20
30304;DHT22;17112;48.636;10.152;2024-03-22T01:45:49;7.90;63.30
30304;DHT22;17112;48.636;10.152;2024-03-22T01:48:15;7.80;63.30
30304;DHT22;17112;48.636;10.152;2024-03-22T01:50:41;7.80;63.20
30304;DHT22;17112;48.636;10.152;2024-03-22T01:53:08;7.80;63.40
30304;DHT22;17112;48.636;10.152;2024-03-22T01:55:34;7.80;63.50
30304;DHT22;17112;48.636;10.152;2024-03-22T01:58:00;7.80;63.40
30304;DHT22;17112;48.636;10.152;2024-03-22T02:00:26;7.70;63.40
30304;DHT22;17112;48.636;10.152;2024-03-22T02:02:51;7.70;63.10
30304;DHT22;17112;48.636;10.152;2024-03-22T02:05:18;7.60;63.30
30304;DHT22;17112;48.636;10.152;2024-03-22T02:07:47;7.60;63.40
30304;DHT22;17112;48.636;10.152;2024-03-22T02:10:14;7.60;63.40
30304;DHT22;17112;48.636;10.152;2024-03-22T02:12:40;7.50;63.30
30304;DHT22;17112;48.636;10.152;2024-03-22T02:15:07;7.50;63.50
30304;DHT22;17112;48.636;10.152;2024-03-22T02:17:34;7.50;63.40
30304;DHT22;17112;48.636;10.152;2024-03-22T02:20:00;7.40;63.40
30304;DHT22;17112;48.636;10.152;2024-03-22T02:22:26;7.40;63.40
30304;DHT22;17112;48.636;10.152;2024-03-22T02:24:52;7.40;63.30
30304;DHT22;17112;48.636;10.152;2024-03-22T02:27:18;7.40;63.30
30304;DHT22;17112;48.636;10.152;2024-03-22T02:29:44;7.30;63.20
30304;DHT22;17112;48.636;10.152;2024-03-22T02:32:09;7.30;63.10
30304;DHT22;17112;48.636;10.152;2024-03-22T02:34:36;7.30;63.30
30304;DHT22;17112;48.636;10.152;2024-03-22T02:37:02;7.30;63.50
30304;DHT22;17112;48.636;10.152;2024-03-22T02:39:28;7.30;63.70
30304;DHT22;17112;48.636;10.152;2024-03-22T02:41:54;7.20;64.40
30304;DHT22;17112;48.636;10.152;2024-03-22T02:44:20;7.20;63.70
30304;DHT22;17112;48.636;10.152;2024-03-22T02:46:45;7.20;63.60
30304;DHT22;17112;48.636;10.152;2024-03-22T02:49:13;7.20;63.60
30304;DHT22;17112;48.636;10.152;2024-03-22T02:51:39;7.20;63.70
30304;DHT22;17112;48.636;10.152;2024-03-22T02:54:04;7.20;63.80
30304;DHT22;17112;48.636;10.152;2024-03-22T02:56:30;7.20;63.70
30304;DHT22;17112;48.636;10.152;2024-03-22T02:58:56;7.10;63.60
30304;DHT22;17112;48.636;10.152;2024-03-22T03:01:22;7.10;63.70
30304;DHT22;17112;48.636;10.152;2024-03-22T03:03:48;7.10;63.60
30304;DHT22;17112;48.636;10.152;2024-03-22T03:06:13;7.10;63.50
30304;DHT22;17112;48.636;10.152;2024-03-22T03:08:40;7.10;63.60
30304;DHT22;17112;48.636;10.152;2024-03-22T03:11:06;7.00;63.50
30304;DHT22;17112;48.636;10.152;2024-03-22T03:13:32;7.00;63.60
30304;DHT22;17112;48.636;10.152;2024-03-22T03:15:57;7.00;63.70
30304;DHT22;17112;48.636;10.152;2024-03-22T03:18:23;7.00;63.70
30304;DHT22;17112;48.636;10.152;2024-03-22T03:20:49;7.00;63.60
30304;DHT22;17112;48.636;10.152;2024-03-22T03:23:15;6.90;63.60
30304;DHT22;17112;48.636;10.152;2024-03-22T03:25:40;6.90;63.90
30304;DHT22;17112;48.636;10.152;2024-03-22T03:28:06;6.90;64.10
30304;DHT22;17112;48.636;10.152;2024-03-22T03:30:34;6.90;64.30
30304;DHT22;17112;48.636;10.152;2024-03-22T03:33:00;6.90;64.20
30304;DHT22;17112;48.636;10.152;2024-03-22T03:35:26;6.90;64.20
30304;DHT22;17112;48.636;10.152;2024-03-22T03:37:52;6.90;64.30
30304;DHT22;17112;48.636;10.152;2024-03-22T03:40:18;6.80;64.30
30304;DHT22;17112;48.636;10.152;2024-03-22T03:42:43;6.80;64.30
30304;DHT22;17112;48.636;10.152;2024-03-22T03:45:18;6.80;64.40
30304;DHT22;17112;48.636;10.152;2024-03-22T03:47:44;6.80;64.90
30304;DHT22;17112;48.636;10.152;2024-03-22T03:50:11;6.80;64.70
30304;DHT22;17112;48.636;10.152;2024-03-22T03:52:37;6.80;64.80
30304;DHT22;17112;48.636;10.152;2024-03-22T03:55:03;6.80;64.80
30304;DHT22;17112;48.636;10.152;2024-03-22T03:57:29;6.80;64.90
30304;DHT22;17112;48.636;10.152;2024-03-22T03:59:55;6.70;65.00
30304;DHT22;17112;48.636;10.152;2024-03-22T04:02:20;6.70;64.90
30304;DHT22;17112;48.636;10.152;2024-03-22T04:04:46;6.70;64.80
30304;DHT22;17112;48.636;10.152;2024-03-22T04:07:12;6.70;64.80
30304;DHT22;17112;48.636;10.152;2024-03-22T04:09:38;6.70;64.70
30304;DHT22;17112;48.636;10.152;2024-03-22T04:12:04;6.70;64.70
30304;DHT22;17112;48.636;10.152;2024-03-22T04:14:29;6.60;64.60
30304;DHT22;17112;48.636;10.152;2024-03-22T04:16:55;6.60;64.60
30304;DHT22;17112;48.636;10.152;2024-03-22T04:19:21;6.60;64.60
30304;DHT22;17112;48.636;10.152;2024-03-22T04:21:49;6.60;64.50
30304;DHT22;17112;48.636;10.152;2024-03-22T04:24:15;6.60;64.50
30304;DHT22;17112;48.636;10.152;2024-03-22T04:26:41;6.50;64.50
30304;DHT22;17112;48.636;10.152;2024-03-22T04:29:06;6.50;64.40
30304;DHT22;17112;48.636;10.152;2024-03-22T04:31:32;6.50;64.40
30304;DHT22;17112;48.636;10.152;2024-03-22T04:33:57;6.40;64.40
30304;DHT22;17112;48.636;10.152;2024-03-22T04:36:23;6.40;64.50
30304;DHT22;17112;48.636;10.152;2024-03-22T04:38:49;6.40;64.80
30304;DHT22;17112;48.636;10.152;2024-03-22T04:41:15;6.40;64.80
30304;DHT22;17112;48.636;10.152;2024-03-22T04:43:40;6.40;64.80
30304;DHT22;17112;48.636;10.152;2024-03-22T04:46:06;6.30;64.60
30304;DHT22;17112;48.636;10.152;2024-03-22T04:48:33;6.30;64.70
30304;DHT22;17112;48.636;10.152;2024-03-22T04:50:58;6.30;64.80
30304;DHT22;17112;48.636;10.152;2024-03-22T04:53:24;6.30;64.90
30304;DHT22;17112;48.636;10.152;2024-03-22T04:55:50;6.30;64.90
30304;DHT22;17112;48.636;10.152;2024-03-22T04:58:20;6.30;64.90
30304;DHT22;17112;48.636;10.152;2024-03-22T05:00:47;6.30;65.00
30304;DHT22;17112;48.636;10.152;2024-03-22T05:03:13;6.20;64.90
30304;DHT22;17112;48.636;10.152;2024-03-22T05:05:40;6.20;64.90
30304;DHT22;17112;48.636;10.152;2024-03-22T05:08:06;6.30;65.00
30304;DHT22;17112;48.636;10.152;2024-03-22T05:10:32;6.20;65.00
30304;DHT22;17112;48.636;10.152;2024-03-22T05:12:58;6.20;65.20
30304;DHT22;17112;48.636;10.152;2024-03-22T05:15:24;6.20;65.90
30304;DHT22;17112;48.636;10.152;2024-03-22T05:17:55;6.20;65.30
30304;DHT22;17112;48.636;10.152;2024-03-22T05:20:21;6.20;65.40
30304;DHT22;17112;48.636;10.152;2024-03-22T05:22:47;6.20;65.60
30304;DHT22;17112;48.636;10.152;2024-03-22T05:25:13;6.20;65.70
30304;DHT22;17112;48.636;10.152;2024-03-22T05:27:40;6.20;65.60
30304;DHT22;17112;48.636;10.152;2024-03-22T05:30:08;6.20;65.70
30304;DHT22;17112;48.636;10.152;2024-03-22T05:32:34;6.20;65.80
30304;DHT22;17112;48.636;10.152;2024-03-22T05:34:59;6.20;65.80
30304;DHT22;17112;48.636;10.152;2024-03-22T05:37:25;6.20;65.80
30304;DHT22;17112;48.636;10.152;2024-03-22T05:39:50;6.20;65.80
30304;DHT22;17112;48.636;10.152;2024-03-22T05:42:16;6.20;65.80
30304;DHT22;17112;48.636;10.152;2024-03-22T05:44:42;6.20;65.80
30304;DHT22;17112;48.636;10.152;2024-03-22T05:47:08;6.20;65.90
30304;DHT22;17112;48.636;10.152;2024-03-22T05:49:35;6.20;66.10
30304;DHT22;17112;48.636;10.152;2024-03-22T05:52:00;6.30;66.20
30304;DHT22;17112;48.636;10.152;2024-03-22T05:54:26;6.30;66.30
30304;DHT22;17112;48.636;10.152;2024-03-22T05:56:52;6.30;66.40
30304;DHT22;17112;48.636;10.152;2024-03-22T05:59:18;6.40;66.50
30304;DHT22;17112;48.636;10.152;2024-03-22T06:01:43;6.40;66.60
30304;DHT22;17112;48.636;10.152;2024-03-22T06:04:09;6.40;66.60
30304;DHT22;17112;48.636;10.152;2024-03-22T06:06:35;6.50;66.50
30304;DHT22;17112;48.636;10.152;2024-03-22T06:09:01;6.50;66.50
30304;DHT22;17112;48.636;10.152;2024-03-22T06:11:30;6.60;66.50
30304;DHT22;17112;48.636;10.152;2024-03-22T06:13:56;6.70;66.50
30304;DHT22;17112;48.636;10.152;2024-03-22T06:16:21;6.70;66.30
30304;DHT22;17112;48.636;10.152;2024-03-22T06:18:47;6.80;66.40
30304;DHT22;17112;48.636;10.152;2024-03-22T06:21:13;6.80;66.40
30304;DHT22;17112;48.636;10.152;2024-03-22T06:23:49;6.90;66.30
30304;DHT22;17112;48.636;10.152;2024-03-22T06:26:15;7.00;66.40
30304;DHT22;17112;48.636;10.152;2024-03-22T06:28:41;7.00;66.50
30304;DHT22;17112;48.636;10.152;2024-03-22T06:31:07;7.10;66.60
30304;DHT22;17112;48.636;10.152;2024-03-22T06:33:33;7.20;66.60
30304;DHT22;17112;48.636;10.152;2024-03-22T06:35:59;7.30;66.60
30304;DHT22;17112;48.636;10.152;2024-03-22T06:38:25;7.40;66.50
30304;DHT22;17112;48.636;10.152;2024-03-22T06:40:51;7.60;66.60
30304;DHT22;17112;48.636;10.152;2024-03-22T06:43:17;7.70;66.70
30304;DHT22;17112;48.636;10.152;2024-03-22T06:45:42;7.80;66.70
30304;DHT22;17112;48.636;10.152;2024-03-22T06:48:08;7.90;66.70
30304;DHT22;17112;48.636;10.152;2024-03-22T06:50:34;8.10;66.70
30304;DHT22;17112;48.636;10.152;2024-03-22T06:52:59;8.20;66.50
30304;DHT22;17112;48.636;10.152;2024-03-22T06:55:25;8.30;66.40
30304;DHT22;17112;48.636;10.152;2024-03-22T06:57:51;8.50;66.50
30304;DHT22;17112;48.636;10.152;2024-03-22T07:00:18;8.60;66.30
30304;DHT22;17112;48.636;10.152;2024-03-22T07:02:44;8.70;66.20
30304;DHT22;17112;48.636;10.152;2024-03-22T07:05:10;8.90;66.20
30304;DHT22;17112;48.636;10.152;2024-03-22T07:07:37;9.00;66.10
30304;DHT22;17112;48.636;10.152;2024-03-22T07:10:03;9.10;66.20
30304;DHT22;17112;48.636;10.152;2024-03-22T07:12:31;9.30;66.20
30304;DHT22;17112;48.636;10.152;2024-03-22T07:14:59;9.40;66.10
30304;DHT22;17112;48.636;10.152;2024-03-22T07:17:24;9.60;66.10
30304;DHT22;17112;48.636;10.152;2024-03-22T07:19:51;9.80;66.00
30304;DHT22;17112;48.636;10.152;2024-03-22T07:22:17;10.00;65.90
30304;DHT22;17112;48.636;10.152;2024-03-22T07:24:43;10.10;65.70
30304;DHT22;17112;48.636;10.152;2024-03-22T07:27:09;10.30;65.60
30304;DHT22;17112;48.636;10.152;2024-03-22T07:29:35;10.50;65.30
30304;DHT22;17112;48.636;10.152;2024-03-22T07:32:00;10.70;65.00
30304;DHT22;17112;48.636;10.152;2024-03-22T07:34:26;10.80;64.70
30304;DHT22;17112;48.636;10.152;2024-03-22T07:36:52;11.00;64.50
30304;DHT22;17112;48.636;10.152;2024-03-22T07:39:18;11.10;64.40
30304;DHT22;17112;48.636;10.152;2024-03-22T07:41:44;11.20;64.10
30304;DHT22;17112;48.636;10.152;2024-03-22T07:44:10;11.40;64.10
30304;DHT22;17112;48.636;10.152;2024-03-22T07:46:36;11.50;64.00
30304;DHT22;17112;48.636;10.152;2024-03-22T07:49:02;11.70;64.00
30304;DHT22;17112;48.636;10.152;2024-03-22T07:51:30;11.80;63.90
30304;DHT22;17112;48.636;10.152;2024-03-22T07:53:55;12.00;63.80
30304;DHT22;17112;48.636;10.152;2024-03-22T07:56:21;12.10;63.50
30304;DHT22;17112;48.636;10.152;2024-03-22T07:58:47;12.30;63.30
30304;DHT22;17112;48.636;10.152;2024-03-22T08:01:13;12.50;63.30
30304;DHT22;17112;48.636;10.152;2024-03-22T08:03:39;12.60;63.10
30304;DHT22;17112;48.636;10.152;2024-03-22T08:06:05;12.80;63.00
30304;DHT22;17112;48.636;10.152;2024-03-22T08:08:30;13.00;62.90
30304;DHT22;17112;48.636;10.152;2024-03-22T08:10:56;13.20;63.00
30304;DHT22;17112;48.636;10.152;2024-03-22T08:13:22;13.30;62.70
30304;DHT22;17112;48.636;10.152;2024-03-22T08:15:48;13.50;62.70
30304;DHT22;17112;48.636;10.152;2024-03-22T08:18:13;13.70;62.50
30304;DHT22;17112;48.636;10.152;2024-03-22T08:20:39;13.90;62.30
30304;DHT22;17112;48.636;10.152;2024-03-22T08:23:05;14.10;62.00
30304;DHT22;17112;48.636;10.152;2024-03-22T08:25:31;14.30;61.60
30304;DHT22;17112;48.636;10.152;2024-03-22T08:27:57;14.40;61.40
30304;DHT22;17112;48.636;10.152;2024-03-22T08:30:24;14.40;61.30
30304;DHT22;17112;48.636;10.152;2024-03-22T08:32:50;14.60;61.20
30304;DHT22;17112;48.636;10.152;2024-03-22T08:35:16;14.60;61.10
30304;DHT22;17112;48.636;10.152;2024-03-22T08:37:42;14.70;61.10
30304;DHT22;17112;48.636;10.152;2024-03-22T08:40:08;14.70;61.00
30304;DHT22;17112;48.636;10.152;2024-03-22T08:42:34;14.80;61.20
30304;DHT22;17112;48.636;10.152;2024-03-22T08:44:59;14.90;61.20
30304;DHT22;17112;48.636;10.152;2024-03-22T08:47:25;15.00;61.10
30304;DHT22;17112;48.636;10.152;2024-03-22T08:49:51;15.00;61.20
30304;DHT22;17112;48.636;10.152;2024-03-22T08:52:17;15.10;61.20
30304;DHT22;17112;48.636;10.152;2024-03-22T08:54:42;15.20;61.30
30304;DHT22;17112;48.636;10.152;2024-03-22T08:57:08;15.30;61.00
30304;DHT22;17112;48.636;10.152;2024-03-22T08:59:33;15.40;60.00
30304;DHT22;17112;48.636;10.152;2024-03-22T09:02:00;15.50;59.50
30304;DHT22;17112;48.636;10.152;2024-03-22T09:04:26;15.60;59.90
30304;DHT22;17112;48.636;10.152;2024-03-22T09:06:51;15.80;58.40
30304;DHT22;17112;48.636;10.152;2024-03-22T09:09:17;15.90;58.50
30304;DHT22;17112;48.636;10.152;2024-03-22T09:11:43;16.00;58.30
30304;DHT22;17112;48.636;10.152;2024-03-22T09:14:09;16.10;58.00
30304;DHT22;17112;48.636;10.152;2024-03-22T09:16:35;16.20;57.70
30304;DHT22;17112;48.636;10.152;2024-03-22T09:19:00;16.30;57.20
30304;DHT22;17112;48.636;10.152;2024-03-22T09:21:26;16.40;57.20
30304;DHT22;17112;48.636;10.152;2024-03-22T09:23:52;16.40;56.80
30304;DHT22;17112;48.636;10.152;2024-03-22T09:26:18;16.50;56.80
30304;DHT22;17112;48.636;10.152;2024-03-22T09:28:46;16.70;56.60
30304;DHT22;17112;48.636;10.152;2024-03-22T09:31:12;16.70;56.50
30304;DHT22;17112;48.636;10.152;2024-03-22T09:33:37;16.80;56.20
30304;DHT22;17112;48.636;10.152;2024-03-22T09:36:03;16.90;56.00
30304;DHT22;17112;48.636;10.152;2024-03-22T09:38:29;17.00;55.70
30304;DHT22;17112;48.636;10.152;2024-03-22T09:40:55;17.10;55.50
30304;DHT22;17112;48.636;10.152;2024-03-22T09:43:21;17.20;55.60
30304;DHT22;17112;48.636;10.152;2024-03-22T09:45:48;17.30;55.00
30304;DHT22;17112;48.636;10.152;2024-03-22T09:48:19;17.40;54.10
30304;DHT22;17112;48.636;10.152;2024-03-22T09:50:48;17.50;53.90
30304;DHT22;17112;48.636;10.152;2024-03-22T09:53:18;17.60;53.60
30304;DHT22;17112;48.636;10.152;2024-03-22T09:55:45;17.60;53.00
30304;DHT22;17112;48.636;10.152;2024-03-22T09:58:11;17.70;53.80
30304;DHT22;17112;48.636;10.152;2024-03-22T10:00:36;17.80;53.40
30304;DHT22;17112;48.636;10.152;2024-03-22T10:03:04;17.90;52.90
30304;DHT22;17112;48.636;10.152;2024-03-22T10:05:30;18.00;53.10
30304;DHT22;17112;48.636;10.152;2024-03-22T10:07:56;18.20;52.90
30304;DHT22;17112;48.636;10.152;2024-03-22T10:10:22;18.30;53.10
30304;DHT22;17112;48.636;10.152;2024-03-22T10:12:48;18.50;52.70
30304;DHT22;17112;48.636;10.152;2024-03-22T10:15:14;18.60;51.80
30304;DHT22;17112;48.636;10.152;2024-03-22T10:17:40;18.70;52.30
30304;DHT22;17112;48.636;10.152;2024-03-22T10:20:06;18.80;51.90
30304;DHT22;17112;48.636;10.152;2024-03-22T10:22:41;19.00;51.40
30304;DHT22;17112;48.636;10.152;2024-03-22T10:25:07;19.10;50.80
30304;DHT22;17112;48.636;10.152;2024-03-22T10:27:32;19.10;50.30
30304;DHT22;17112;48.636;10.152;2024-03-22T10:29:59;19.20;50.00
30304;DHT22;17112;48.636;10.152;2024-03-22T10:32:24;19.20;49.30
30304;DHT22;17112;48.636;10.152;2024-03-22T10:34:53;19.20;49.00
30304;DHT22;17112;48.636;10.152;2024-03-22T10:37:19;19.10;49.00
30304;DHT22;17112;48.636;10.152;2024-03-22T10:39:46;19.10;48.80
30304;DHT22;17112;48.636;10.152;2024-03-22T10:42:13;19.10;49.60
30304;DHT22;17112;48.636;10.152;2024-03-22T10:44:40;19.10;49.40
30304;DHT22;17112;48.636;10.152;2024-03-22T10:47:09;19.10;49.90
30304;DHT22;17112;48.636;10.152;2024-03-22T10:49:37;19.20;49.70
30304;DHT22;17112;48.636;10.152;2024-03-22T10:52:06;19.40;49.40
30304;DHT22;17112;48.636;10.152;2024-03-22T10:54:40;19.50;48.80
30304;DHT22;17112;48.636;10.152;2024-03-22T10:57:13;19.70;49.00
30304;DHT22;17112;48.636;10.152;2024-03-22T10:59:41;19.70;48.40
30304;DHT22;17112;48.636;10.152;2024-03-22T11:02:10;19.80;47.60
30304;DHT22;17112;48.636;10.152;2024-03-22T11:04:36;19.90;48.50
30304;DHT22;17112;48.636;10.152;2024-03-22T11:07:02;20.10;48.60
30304;DHT22;17112;48.636;10.152;2024-03-22T11:09:29;20.10;47.80
30304;DHT22;17112;48.636;10.152;2024-03-22T11:11:56;20.20;47.60
30304;DHT22;17112;48.636;10.152;2024-03-22T11:14:27;20.20;47.70
30304;DHT22;17112;48.636;10.152;2024-03-22T11:16:54;20.20;47.90
30304;DHT22;17112;48.636;10.152;2024-03-22T11:19:19;20.40;47.70
30304;DHT22;17112;48.636;10.152;2024-03-22T11:21:45;20.40;46.10
30304;DHT22;17112;48.636;10.152;2024-03-22T11:24:11;20.50;46.30
30304;DHT22;17112;48.636;10.152;2024-03-22T11:26:37;20.50;45.90
30304;DHT22;17112;48.636;10.152;2024-03-22T11:29:03;20.40;45.60
30304;DHT22;17112;48.636;10.152;2024-03-22T11:31:29;20.40;46.30
30304;DHT22;17112;48.636;10.152;2024-03-22T11:33:55;20.50;46.10
30304;DHT22;17112;48.636;10.152;2024-03-22T11:36:21;20.50;45.70
30304;DHT22;17112;48.636;10.152;2024-03-22T11:38:47;20.60;45.50
30304;DHT22;17112;48.636;10.152;2024-03-22T11:41:20;20.70;45.30
30304;DHT22;17112;48.636;10.152;2024-03-22T11:43:48;20.90;44.70
30304;DHT22;17112;48.636;10.152;2024-03-22T11:46:15;21.00;44.40
30304;DHT22;17112;48.636;10.152;2024-03-22T11:48:42;21.00;44.10
30304;DHT22;17112;48.636;10.152;2024-03-22T11:51:08;21.10;43.40
30304;DHT22;17112;48.636;10.152;2024-03-22T11:53:35;21.10;43.80
30304;DHT22;17112;48.636;10.152;2024-03-22T11:56:02;21.20;43.90
30304;DHT22;17112;48.636;10.152;2024-03-22T11:58:29;21.30;44.20
30304;DHT22;17112;48.636;10.152;2024-03-22T12:00:56;21.40;44.70
30304;DHT22;17112;48.636;10.152;2024-03-22T12:03:23;21.50;43.70
30304;DHT22;17112;48.636;10.152;2024-03-22T12:05:49;21.60;42.80
30304;DHT22;17112;48.636;10.152;2024-03-22T12:08:19;21.60;43.10
30304;DHT22;17112;48.636;10.152;2024-03-22T12:10:45;21.70;41.90
30304;DHT22;17112;48.636;10.152;2024-03-22T12:13:10;21.70;41.90
30304;DHT22;17112;48.636;10.152;2024-03-22T12:15:36;21.70;41.60
30304;DHT22;17112;48.636;10.152;2024-03-22T12:18:02;21.70;41.90
30304;DHT22;17112;48.636;10.152;2024-03-22T12:20:28;21.70;41.30
30304;DHT22;17112;48.636;10.152;2024-03-22T12:22:55;21.70;41.30
30304;DHT22;17112;48.636;10.152;2024-03-22T12:25:21;21.70;41.30
30304;DHT22;17112;48.636;10.152;2024-03-22T12:27:47;21.70;40.80
30304;DHT22;17112;48.636;10.152;2024-03-22T12:30:13;21.70;39.90
30304;DHT22;17112;48.636;10.152;2024-03-22T12:32:39;21.70;40.50
30304;DHT22;17112;48.636;10.152;2024-03-22T12:35:05;21.70;40.60
30304;DHT22;17112;48.636;10.152;2024-03-22T12:37:31;21.70;40.90
30304;DHT22;17112;48.636;10.152;2024-03-22T12:39:56;21.80;40.40
30304;DHT22;17112;48.636;10.152;2024-03-22T12:42:22;21.80;40.50
30304;DHT22;17112;48.636;10.152;2024-03-22T12:44:58;21.80;39.90
30304;DHT22;17112;48.636;10.152;2024-03-22T12:47:23;21.90;39.70
30304;DHT22;17112;48.636;10.152;2024-03-22T12:49:49;21.90;40.20
30304;DHT22;17112;48.636;10.152;2024-03-22T12:52:15;21.90;38.90
30304;DHT22;17112;48.636;10.152;2024-03-22T12:54:41;22.00;39.70
30304;DHT22;17112;48.636;10.152;2024-03-22T12:57:06;22.00;39.90
30304;DHT22;17112;48.636;10.152;2024-03-22T12:59:32;22.10;39.40
30304;DHT22;17112;48.636;10.152;2024-03-22T13:01:59;22.20;39.40
30304;DHT22;17112;48.636;10.152;2024-03-22T13:04:27;22.20;38.80
30304;DHT22;17112;48.636;10.152;2024-03-22T13:06:52;22.30;38.90
30304;DHT22;17112;48.636;10.152;2024-03-22T13:09:18;22.40;38.70
30304;DHT22;17112;48.636;10.152;2024-03-22T13:11:47;22.50;39.00
30304;DHT22;17112;48.636;10.152;2024-03-22T13:14:14;22.60;38.80
30304;DHT22;17112;48.636;10.152;2024-03-22T13:16:40;22.80;38.70
30304;DHT22;17112;48.636;10.152;2024-03-22T13:19:06;22.80;38.70
30304;DHT22;17112;48.636;10.152;2024-03-22T13:21:34;23.00;38.20
30304;DHT22;17112;48.636;10.152;2024-03-22T13:23:59;23.10;37.20
30304;DHT22;17112;48.636;10.152;2024-03-22T13:26:25;23.10;37.50
30304;DHT22;17112;48.636;10.152;2024-03-22T13:28:51;23.10;37.40
30304;DHT22;17112;48.636;10.152;2024-03-22T13:31:17;23.20;37.80
30304;DHT22;17112;48.636;10.152;2024-03-22T13:33:43;23.20;38.10
30304;DHT22;17112;48.636;10.152;2024-03-22T13:36:08;23.30;37.80
30304;DHT22;17112;48.636;10.152;2024-03-22T13:38:34;23.20;37.80
30304;DHT22;17112;48.636;10.152;2024-03-22T13:41:00;23.30;38.20
30304;DHT22;17112;48.636;10.152;2024-03-22T13:43:27;23.30;38.70
30304;DHT22;17112;48.636;10.152;2024-03-22T13:45:53;23.30;38.60
30304;DHT22;17112;48.636;10.152;2024-03-22T13:48:20;23.30;38.70
30304;DHT22;17112;48.636;10.152;2024-03-22T13:50:53;23.30;39.20
30304;DHT22;17112;48.636;10.152;2024-03-22T13:53:19;23.40;39.70
30304;DHT22;17112;48.636;10.152;2024-03-22T13:55:47;23.40;39.90
30304;DHT22;17112;48.636;10.152;2024-03-22T13:58:13;23.50;39.50
30304;DHT22;17112;48.636;10.152;2024-03-22T14:00:39;23.50;39.90
30304;DHT22;17112;48.636;10.152;2024-03-22T14:03:05;23.50;39.80
30304;DHT22;17112;48.636;10.152;2024-03-22T14:05:31;23.50;40.10
30304;DHT22;17112;48.636;10.152;2024-03-22T14:08:01;23.50;39.90
30304;DHT22;17112;48.636;10.152;2024-03-22T14:10:27;23.40;39.40
30304;DHT22;17112;48.636;10.152;2024-03-22T14:12:53;23.40;39.90
30304;DHT22;17112;48.636;10.152;2024-03-22T14:15:19;23.30;40.10
30304;DHT22;17112;48.636;10.152;2024-03-22T14:17:45;23.30;40.40
30304;DHT22;17112;48.636;10.152;2024-03-22T14:20:11;23.30;40.40
30304;DHT22;17112;48.636;10.152;2024-03-22T14:22:40;23.30;40.30
30304;DHT22;17112;48.636;10.152;2024-03-22T14:25:09;23.40;40.30
30304;DHT22;17112;48.636;10.152;2024-03-22T14:27:36;23.50;40.00
30304;DHT22;17112;48.636;10.152;2024-03-22T14:30:03;23.50;39.80
30304;DHT22;17112;48.636;10.152;2024-03-22T14:32:35;23.60;40.30
30304;DHT22;17112;48.636;10.152;2024-03-22T14:35:01;23.70;40.00
30304;DHT22;17112;48.636;10.152;2024-03-22T14:37:27;23.80;40.50
30304;DHT22;17112;48.636;10.152;2024-03-22T14:39:52;24.00;40.30
30304;DHT22;17112;48.636;10.152;2024-03-22T14:42:18;24.20;40.40
30304;DHT22;17112;48.636;10.152;2024-03-22T14:44:47;24.50;40.40
30304;DHT22;17112;48.636;10.152;2024-03-22T14:47:14;24.70;39.80
30304;DHT22;17112;48.636;10.152;2024-03-22T14:49:40;25.10;39.70
30304;DHT22;17112;48.636;10.152;2024-03-22T14:52:06;25.30;39.10
30304;DHT22;17112;48.636;10.152;2024-03-22T14:54:32;25.60;38.60
30304;DHT22;17112;48.636;10.152;2024-03-22T14:56:58;25.70;37.80
30304;DHT22;17112;48.636;10.152;2024-03-22T14:59:27;25.80;37.10
30304;DHT22;17112;48.636;10.152;2024-03-22T15:01:53;25.80;36.40
30304;DHT22;17112;48.636;10.152;2024-03-22T15:04:19;25.70;36.50
30304;DHT22;17112;48.636;10.152;2024-03-22T15:06:45;25.50;36.00
30304;DHT22;17112;48.636;10.152;2024-03-22T15:09:14;25.30;35.60
30304;DHT22;17112;48.636;10.152;2024-03-22T15:11:39;25.10;36.00
30304;DHT22;17112;48.636;10.152;2024-03-22T15:14:05;24.90;36.60
30304;DHT22;17112;48.636;10.152;2024-03-22T15:16:31;24.70;37.40